createdAt,value
2023-02-23T00:03:12.894Z,17.70
2023-02-23T00:06:39.912Z,23.40
2023-02-23T00:09:53.846Z,23.43
2023-02-23T00:13:05.798Z,18.70
2023-02-23T00:16:05.859Z,17.95
2023-02-23T00:19:19.893Z,22.65
2023-02-23T00:22:34.877Z,20.73
2023-02-23T00:26:01.913Z,20.50
2023-02-23T00:29:13.927Z,21.90
2023-02-23T00:32:26.010Z,20.27
2023-02-23T00:35:37.892Z,22.17
2023-02-23T00:39:01.865Z,21.40
2023-02-23T00:42:15.989Z,20.55
2023-02-23T00:45:40.020Z,21.37
2023-02-23T00:48:39.970Z,21.83
2023-02-23T00:52:05.035Z,19.30
2023-02-23T00:55:05.026Z,21.57
2023-02-23T00:58:32.989Z,19.03
2023-02-23T01:01:45.013Z,19.53
2023-02-23T01:04:57.019Z,22.05
2023-02-23T01:07:58.975Z,20.80
2023-02-23T01:11:23.012Z,20.73
2023-02-23T01:14:37.043Z,22.20
2023-02-23T01:17:50.007Z,24.20
2023-02-23T01:21:02.063Z,25.43
2023-02-23T01:24:26.141Z,22.95
2023-02-23T01:27:39.077Z,21.87
2023-02-23T01:31:05.160Z,23.13
2023-02-23T01:34:18.127Z,22.63
2023-02-23T01:37:30.153Z,19.87
2023-02-23T01:40:32.056Z,19.50
2023-02-23T01:43:44.096Z,23.17
2023-02-23T01:46:58.153Z,21.30
2023-02-23T01:50:22.178Z,24.33
2023-02-23T01:53:34.223Z,23.27
2023-02-23T01:57:00.208Z,22.60
2023-02-23T02:00:12.177Z,22.20
2023-02-23T02:03:38.260Z,21.97
2023-02-23T02:06:50.119Z,21.63
2023-02-23T02:10:19.974Z,20.25
2023-02-23T02:13:44.247Z,23.93
2023-02-23T02:17:27.251Z,20.80
2023-02-23T02:20:45.228Z,20.00
2023-02-23T02:24:23.241Z,20.97
2023-02-23T02:27:38.300Z,21.93
2023-02-23T02:31:13.401Z,21.77
2023-02-23T02:34:45.299Z,21.25
2023-02-23T02:38:13.323Z,20.30
2023-02-23T02:41:26.257Z,22.20
2023-02-23T02:44:51.321Z,23.40
2023-02-23T02:48:19.318Z,21.37
2023-02-23T02:51:45.307Z,22.15
2023-02-23T02:55:02.369Z,24.25
2023-02-23T02:58:26.379Z,25.13
2023-02-23T03:01:44.097Z,22.87
2023-02-23T03:05:03.196Z,24.70
2023-02-23T03:08:21.133Z,24.67
2023-02-23T03:11:54.088Z,20.15
2023-02-23T03:15:23.468Z,21.03
2023-02-23T03:18:55.944Z,29.90
2023-02-23T03:22:15.003Z,22.85
2023-02-23T03:25:44.920Z,20.60
2023-02-23T03:29:16.886Z,20.77
2023-02-23T03:32:48.177Z,21.80
2023-02-23T03:36:05.800Z,26.23
2023-02-23T03:39:36.081Z,24.15
2023-02-23T03:42:52.979Z,21.65
2023-02-23T03:46:24.917Z,20.95
2023-02-23T03:49:55.040Z,23.90
2023-02-23T03:53:28.069Z,21.80
2023-02-23T03:56:48.976Z,21.90
2023-02-23T04:00:21.197Z,21.93
2023-02-23T04:03:53.405Z,20.33
2023-02-23T04:07:11.152Z,25.20
2023-02-23T04:10:41.411Z,25.25
2023-02-23T04:13:40.592Z,23.00
2023-02-23T04:16:51.664Z,21.70
2023-02-23T04:20:07.280Z,23.95
2023-02-23T04:23:19.625Z,22.75
2023-02-23T04:26:19.631Z,19.50
2023-02-23T04:29:43.657Z,23.87
2023-02-23T04:32:55.584Z,22.63
2023-02-23T04:36:23.640Z,30.30
2023-02-23T04:39:26.706Z,22.33
2023-02-23T04:42:38.723Z,23.87
2023-02-23T04:45:50.698Z,22.50
2023-02-23T04:49:03.739Z,25.05
2023-02-23T04:52:17.802Z,23.30
2023-02-23T04:55:42.665Z,22.30
2023-02-23T04:58:54.691Z,22.40
2023-02-23T05:02:07.784Z,21.93
2023-02-23T05:05:07.815Z,22.20
2023-02-23T05:08:33.777Z,21.27
2023-02-23T05:11:33.803Z,22.70
2023-02-23T05:14:45.820Z,20.07
2023-02-23T05:17:45.952Z,31.30
2023-02-23T05:20:58.836Z,22.67
2023-02-23T05:24:12.778Z,23.90
2023-02-23T05:27:26.760Z,23.60
2023-02-23T05:30:30.798Z,22.00
2023-02-23T05:33:43.083Z,26.70
2023-02-23T05:36:42.800Z,21.00
2023-02-23T05:40:11.916Z,23.80
2023-02-23T05:43:23.797Z,22.97
2023-02-23T05:46:47.909Z,23.80
2023-02-23T05:49:47.837Z,24.57
2023-02-23T05:52:59.881Z,22.30
2023-02-23T05:56:13.884Z,26.35
2023-02-23T05:59:26.964Z,27.35
2023-02-23T06:02:26.922Z,26.77
2023-02-23T06:05:41.012Z,25.20
2023-02-23T06:08:40.971Z,23.73
2023-02-23T06:12:05.938Z,23.05
2023-02-23T06:15:05.980Z,25.93
2023-02-23T06:18:30.022Z,23.80
2023-02-23T06:21:42.014Z,23.20
2023-02-23T06:24:54.018Z,28.60
2023-02-23T06:28:07.976Z,29.57
2023-02-23T06:31:25.986Z,32.53
2023-02-23T06:34:26.013Z,28.80
2023-02-23T06:37:41.086Z,26.87
2023-02-23T06:40:42.038Z,35.37
2023-02-23T06:44:09.109Z,28.90
2023-02-23T06:47:09.040Z,24.35
2023-02-23T06:50:23.145Z,24.63
2023-02-23T06:53:23.138Z,26.90
2023-02-23T06:56:47.099Z,23.13
2023-02-23T07:00:03.099Z,24.27
2023-02-23T07:03:15.090Z,26.07
2023-02-23T07:06:19.093Z,26.10
2023-02-23T07:09:43.108Z,27.20
2023-02-23T07:12:55.079Z,28.97
2023-02-23T07:16:24.180Z,25.57
2023-02-23T07:19:27.196Z,24.60
2023-02-23T07:22:40.073Z,24.25
2023-02-23T07:25:39.218Z,22.93
2023-02-23T07:28:53.355Z,23.70
2023-02-23T07:32:05.344Z,26.25
2023-02-23T07:35:31.150Z,23.43
2023-02-23T07:38:31.209Z,22.45
2023-02-23T07:41:55.272Z,26.03
2023-02-23T07:44:55.251Z,25.13
2023-02-23T07:48:22.222Z,25.45
2023-02-23T07:51:34.371Z,24.80
2023-02-23T07:54:46.344Z,23.15
2023-02-23T07:57:58.251Z,24.05
2023-02-23T08:01:22.436Z,25.67
2023-02-23T08:04:48.282Z,22.50
2023-02-23T08:07:48.370Z,24.80
2023-02-23T08:11:12.338Z,22.85
2023-02-23T08:14:24.328Z,23.87
2023-02-23T08:17:37.380Z,18.65
2023-02-23T08:20:51.347Z,21.70
2023-02-23T08:24:04.375Z,23.45
2023-02-23T08:27:16.335Z,22.20
2023-02-23T08:30:28.413Z,23.77
2023-02-23T08:33:28.388Z,22.30
2023-02-23T08:36:58.377Z,20.30
2023-02-23T08:40:01.410Z,20.75
2023-02-23T08:43:13.406Z,21.25
2023-02-23T08:46:13.541Z,20.37
2023-02-23T08:49:40.430Z,19.20
2023-02-23T08:52:54.402Z,22.27
2023-02-23T08:56:22.413Z,19.75
2023-02-23T08:59:49.501Z,19.90
2023-02-23T09:03:01.480Z,21.55
2023-02-23T09:06:13.572Z,20.70
2023-02-23T09:09:42.507Z,19.43
2023-02-23T09:12:42.504Z,20.00
2023-02-23T09:16:07.559Z,19.70
2023-02-23T09:19:07.509Z,20.75
2023-02-23T09:22:20.563Z,21.47
2023-02-23T09:25:34.528Z,22.10
2023-02-23T09:28:58.598Z,19.23
2023-02-23T09:31:58.670Z,18.97
2023-02-23T09:35:10.534Z,19.10
2023-02-23T09:38:10.633Z,17.80
2023-02-23T09:41:41.633Z,18.45
2023-02-23T09:45:05.561Z,22.95
2023-02-23T09:48:30.613Z,18.37
2023-02-23T09:51:42.635Z,22.20
2023-02-23T09:55:07.730Z,21.20
2023-02-23T09:58:21.690Z,20.27
2023-02-23T10:01:52.686Z,22.63
2023-02-23T10:05:16.720Z,21.60
2023-02-23T10:08:44.698Z,20.05
2023-02-23T10:12:09.731Z,21.17
2023-02-23T10:15:24.724Z,19.67
2023-02-23T10:18:49.722Z,19.57
2023-02-23T10:22:01.813Z,22.07
2023-02-23T10:25:27.878Z,18.85
2023-02-23T10:28:39.799Z,20.50
2023-02-23T10:32:05.856Z,20.55
2023-02-23T10:35:29.837Z,20.80
2023-02-23T10:38:42.828Z,17.37
2023-02-23T10:41:42.762Z,21.10
2023-02-23T10:45:07.845Z,18.63
2023-02-23T10:48:25.112Z,21.37
2023-02-23T10:51:49.858Z,21.63
2023-02-23T10:55:04.863Z,20.97
2023-02-23T10:58:29.827Z,21.13
2023-02-23T11:01:52.116Z,19.60
2023-02-23T11:05:10.805Z,21.13
2023-02-23T11:08:35.888Z,19.93
2023-02-23T11:11:47.892Z,19.33
2023-02-23T11:14:47.902Z,21.77
2023-02-23T11:18:11.886Z,21.57
2023-02-23T11:21:25.917Z,17.10
2023-02-23T11:24:49.895Z,19.85
2023-02-23T11:28:02.952Z,18.85
2023-02-23T11:31:26.997Z,19.65
2023-02-23T11:34:42.963Z,17.60
2023-02-23T11:38:09.008Z,19.35
2023-02-23T11:41:23.932Z,17.70
2023-02-23T11:44:47.941Z,20.03
2023-02-23T11:48:00.032Z,15.90
2023-02-23T11:51:23.935Z,17.90
2023-02-23T11:54:42.017Z,15.97
2023-02-23T11:57:53.984Z,18.43
2023-02-23T12:00:54.013Z,18.15
2023-02-23T12:04:18.087Z,17.60
2023-02-23T12:07:48.065Z,20.75
2023-02-23T12:11:14.019Z,16.93
2023-02-23T12:14:27.535Z,16.77
2023-02-23T12:17:52.101Z,19.17
2023-02-23T12:21:04.052Z,18.00
2023-02-23T12:24:35.125Z,18.05
2023-02-23T12:27:49.106Z,17.70
2023-02-23T12:31:15.360Z,18.00
2023-02-23T12:34:30.120Z,21.97
2023-02-23T12:37:55.166Z,21.00
2023-02-23T12:41:08.133Z,22.50
2023-02-23T12:44:35.185Z,20.37
2023-02-23T12:47:48.163Z,25.07
2023-02-23T12:51:13.151Z,21.87
2023-02-23T12:54:25.169Z,20.27
2023-02-23T12:57:52.229Z,26.23
2023-02-23T13:01:17.497Z,30.87
2023-02-23T13:04:47.265Z,28.80
2023-02-23T13:08:11.599Z,25.67
2023-02-23T13:11:25.252Z,28.35
2023-02-23T13:14:37.240Z,23.80
2023-02-23T13:18:03.215Z,28.87
2023-02-23T13:21:15.223Z,29.17
2023-02-23T13:24:39.282Z,28.35
2023-02-23T13:27:51.294Z,31.83
2023-02-23T13:31:05.708Z,29.30
2023-02-23T13:34:17.353Z,29.10
2023-02-23T13:37:41.483Z,32.50
2023-02-23T13:40:54.444Z,32.77
2023-02-23T13:44:18.320Z,26.95
2023-02-23T13:47:30.405Z,24.60
2023-02-23T13:50:56.399Z,29.73
2023-02-23T13:54:08.392Z,27.27
2023-02-23T13:57:36.408Z,27.87
2023-02-23T14:00:48.418Z,26.87
2023-02-23T14:04:13.531Z,28.80
2023-02-23T14:07:28.368Z,26.07
2023-02-23T14:10:53.470Z,27.37
2023-02-23T14:14:05.495Z,26.07
2023-02-23T14:17:36.454Z,28.65
2023-02-23T14:21:01.521Z,25.80
2023-02-23T14:24:30.442Z,27.30
2023-02-23T14:27:47.528Z,24.95
2023-02-23T14:31:17.872Z,23.70
2023-02-23T14:34:31.485Z,32.37
2023-02-23T14:37:56.513Z,25.67
2023-02-23T14:41:10.653Z,25.93
2023-02-23T14:44:36.507Z,31.55
2023-02-23T14:47:48.525Z,28.10
2023-02-23T14:51:16.539Z,29.07
2023-02-23T14:54:24.607Z,25.97
2023-02-23T14:57:51.594Z,32.20
2023-02-23T15:01:08.602Z,37.20
2023-02-23T15:04:33.661Z,29.25
2023-02-23T15:07:45.609Z,28.37
2023-02-23T15:11:09.619Z,31.80
2023-02-23T15:14:28.314Z,34.70
2023-02-23T15:17:51.625Z,28.80
2023-02-23T15:21:03.667Z,34.33
2023-02-23T15:24:28.624Z,34.00
2023-02-23T15:27:44.632Z,29.60
2023-02-23T15:31:10.702Z,22.85
2023-02-23T15:34:22.624Z,24.27
2023-02-23T15:37:56.588Z,23.20
2023-02-23T15:41:01.662Z,22.50
2023-02-23T15:44:42.368Z,19.40
2023-02-23T15:47:47.722Z,20.50
2023-02-23T15:51:11.708Z,14.13
2023-02-23T15:54:23.808Z,10.27
2023-02-23T15:57:47.805Z,16.17
2023-02-23T16:01:00.748Z,13.37
2023-02-23T16:04:26.768Z,10.97
2023-02-23T16:07:41.959Z,14.07
2023-02-23T16:11:06.837Z,12.57
2023-02-23T16:14:18.765Z,15.30
2023-02-23T16:17:46.826Z,11.87
2023-02-23T16:21:00.802Z,12.80
2023-02-23T16:24:24.804Z,16.53
2023-02-23T16:27:24.832Z,19.67
2023-02-23T16:30:58.034Z,11.80
2023-02-23T16:34:09.816Z,12.77
2023-02-23T16:37:39.865Z,11.50
2023-02-23T16:40:51.847Z,9.50
2023-02-23T16:44:16.052Z,15.25
2023-02-23T16:47:36.937Z,13.97
2023-02-23T16:51:03.924Z,12.80
2023-02-23T16:54:17.946Z,9.40
2023-02-23T16:57:29.968Z,10.20
2023-02-23T17:00:45.960Z,13.40
2023-02-23T17:04:04.001Z,14.23
2023-02-23T17:07:04.067Z,9.63
2023-02-23T17:10:30.016Z,11.65
2023-02-23T17:13:41.953Z,13.30
2023-02-23T17:16:54.027Z,15.33
2023-02-23T17:19:54.048Z,11.50
2023-02-23T17:23:21.061Z,10.17
2023-02-23T17:26:28.077Z,10.85
2023-02-23T17:29:57.095Z,12.50
2023-02-23T17:33:09.178Z,9.23
2023-02-23T17:36:33.140Z,12.03
2023-02-23T17:39:33.094Z,15.77
2023-02-23T17:42:47.082Z,9.30
2023-02-23T17:46:00.087Z,9.10
2023-02-23T17:49:24.096Z,10.10
2023-02-23T17:52:24.152Z,15.85
2023-02-23T17:55:48.199Z,11.70
2023-02-23T17:59:01.075Z,10.63
2023-02-23T18:02:26.185Z,12.63
2023-02-23T18:05:38.191Z,7.20
2023-02-23T18:08:38.121Z,9.23
2023-02-23T18:11:51.120Z,12.17
2023-02-23T18:14:51.210Z,8.53
2023-02-23T18:18:20.224Z,9.50
2023-02-23T18:21:34.181Z,10.40
2023-02-23T18:25:02.215Z,8.40
2023-02-23T18:28:15.210Z,7.97
2023-02-23T18:31:39.319Z,10.07
2023-02-23T18:34:53.263Z,9.95
2023-02-23T18:38:05.291Z,8.73
2023-02-23T18:41:17.339Z,10.05
2023-02-23T18:44:41.284Z,9.80
2023-02-23T18:47:41.300Z,6.20
2023-02-23T18:51:08.282Z,7.00
2023-02-23T18:54:08.339Z,5.57
2023-02-23T18:57:21.349Z,10.13
2023-02-23T19:00:34.451Z,10.15
2023-02-23T19:03:48.343Z,11.65
2023-02-23T19:07:02.341Z,10.10
2023-02-23T19:10:15.354Z,6.63
2023-02-23T19:13:15.539Z,9.43
2023-02-23T19:16:40.379Z,6.15
2023-02-23T19:19:40.462Z,8.27
2023-02-23T19:23:06.422Z,3.80
2023-02-23T19:26:06.435Z,5.65
2023-02-23T19:29:33.441Z,6.40
2023-02-23T19:32:33.634Z,4.50
2023-02-23T19:35:45.507Z,3.73
2023-02-23T19:38:58.474Z,5.33
2023-02-23T19:42:11.470Z,7.75
2023-02-23T19:45:23.511Z,7.55
2023-02-23T19:48:35.481Z,5.70
2023-02-23T19:51:47.591Z,8.03
2023-02-23T19:55:14.530Z,3.57
2023-02-23T19:58:14.495Z,7.97
2023-02-23T20:01:38.497Z,5.50
2023-02-23T20:04:50.621Z,7.60
2023-02-23T20:08:02.509Z,5.80
2023-02-23T20:11:31.515Z,6.23
2023-02-23T20:14:31.588Z,3.80
2023-02-23T20:17:43.538Z,6.90
2023-02-23T20:20:43.607Z,7.23
2023-02-23T20:24:07.604Z,5.60
2023-02-23T20:27:20.548Z,4.60
2023-02-23T20:30:44.726Z,7.55
2023-02-23T20:33:56.560Z,4.55
2023-02-23T20:37:08.594Z,5.85
2023-02-23T20:40:08.602Z,4.25
2023-02-23T20:43:34.607Z,4.40
2023-02-23T20:46:34.716Z,6.00
2023-02-23T20:49:47.718Z,4.70
2023-02-23T20:52:47.744Z,10.70
2023-02-23T20:55:59.697Z,4.37
2023-02-23T20:59:12.701Z,7.63
2023-02-23T21:02:39.672Z,8.85
2023-02-23T21:05:52.731Z,2.10
2023-02-23T21:09:17.725Z,3.37
2023-02-23T21:12:17.766Z,2.90
2023-02-23T21:15:43.761Z,3.73
2023-02-23T21:18:55.788Z,5.53
2023-02-23T21:22:22.798Z,3.47
2023-02-23T21:25:34.790Z,3.30
2023-02-23T21:28:46.838Z,5.53
2023-02-23T21:32:00.880Z,7.47
2023-02-23T21:35:12.817Z,3.57
2023-02-23T21:38:15.794Z,3.77
2023-02-23T21:41:39.891Z,4.07
2023-02-23T21:44:51.856Z,4.95
2023-02-23T21:48:17.880Z,3.90
2023-02-23T21:51:29.858Z,5.30
2023-02-23T21:54:41.881Z,6.70
2023-02-23T21:57:53.838Z,8.35
2023-02-23T22:01:17.935Z,5.40
2023-02-23T22:04:42.936Z,4.57
2023-02-23T22:07:42.935Z,3.50
2023-02-23T22:10:54.867Z,7.83
2023-02-23T22:13:55.996Z,5.75
2023-02-23T22:17:09.026Z,3.10
2023-02-23T22:20:23.060Z,6.30
2023-02-23T22:23:36.030Z,3.77
2023-02-23T22:26:36.068Z,2.30
2023-02-23T22:29:50.051Z,3.90
2023-02-23T22:32:50.195Z,1.73
2023-02-23T22:36:17.022Z,2.05
2023-02-23T22:39:29.035Z,3.05
2023-02-23T22:42:43.079Z,1.80
2023-02-23T22:45:43.063Z,2.30
2023-02-23T22:49:08.161Z,2.63
2023-02-23T22:52:22.060Z,3.80
2023-02-23T22:55:34.149Z,6.70
2023-02-23T22:58:46.155Z,3.30
2023-02-23T23:02:11.077Z,2.27
2023-02-23T23:05:27.085Z,2.55
2023-02-23T23:08:53.108Z,2.05
2023-02-23T23:12:08.160Z,4.13
2023-02-23T23:15:33.118Z,2.77
2023-02-23T23:18:34.134Z,4.30
2023-02-23T23:21:59.169Z,6.10
2023-02-23T23:25:13.136Z,8.70
2023-02-23T23:28:26.172Z,3.30
2023-02-23T23:31:38.500Z,3.93
2023-02-23T23:34:50.244Z,1.97
2023-02-23T23:38:03.207Z,4.80
2023-02-23T23:41:30.223Z,7.25
2023-02-23T23:44:42.244Z,2.43
2023-02-23T23:48:06.245Z,3.40
2023-02-23T23:51:07.255Z,3.40
2023-02-23T23:54:32.327Z,4.73
2023-02-23T23:57:46.329Z,2.05
